createdAt,value
2023-05-15T00:00:21.209Z,29.65
2023-05-15T00:01:21.173Z,26.95
2023-05-15T00:02:21.304Z,27.98
2023-05-15T00:03:21.335Z,27.68
2023-05-15T00:04:21.215Z,29.04
2023-05-15T00:05:21.275Z,30.96
2023-05-15T00:06:21.187Z,28.09
2023-05-15T00:07:21.188Z,28.29
2023-05-15T00:08:21.177Z,26.92
2023-05-15T00:09:21.174Z,29.58
2023-05-15T00:10:21.198Z,26.71
2023-05-15T00:11:21.191Z,28.50
2023-05-15T00:12:21.193Z,30.24
2023-05-15T00:13:21.212Z,27.31
2023-05-15T00:14:21.161Z,28.56
2023-05-15T00:15:21.202Z,27.82
2023-05-15T00:16:21.212Z,29.32
2023-05-15T00:17:21.166Z,29.21
2023-05-15T00:18:21.159Z,29.34
2023-05-15T00:19:21.204Z,29.34
2023-05-15T00:20:21.171Z,29.73
2023-05-15T00:21:21.185Z,28.66
2023-05-15T00:22:21.176Z,28.21
2023-05-15T00:23:21.169Z,29.37
2023-05-15T00:24:21.166Z,28.83
2023-05-15T00:25:21.162Z,29.20
2023-05-15T00:26:21.157Z,26.12
2023-05-15T00:27:21.152Z,27.99
2023-05-15T00:28:21.156Z,27.71
2023-05-15T00:29:21.156Z,28.51
2023-05-15T00:30:21.156Z,26.35
2023-05-15T00:31:21.232Z,26.07
2023-05-15T00:32:21.198Z,28.68
2023-05-15T00:33:21.162Z,30.45
2023-05-15T00:34:21.173Z,31.32
2023-05-15T00:35:21.185Z,33.02
2023-05-15T00:36:21.186Z,30.53
2023-05-15T00:37:21.191Z,29.74
2023-05-15T00:38:21.192Z,27.57
2023-05-15T00:39:21.198Z,29.26
2023-05-15T00:40:21.210Z,29.84
2023-05-15T00:41:21.227Z,29.50
2023-05-15T00:42:21.244Z,27.24
2023-05-15T00:43:21.216Z,27.59
2023-05-15T00:44:21.212Z,29.80
2023-05-15T00:45:21.253Z,29.00
2023-05-15T00:46:21.303Z,30.51
2023-05-15T00:47:21.216Z,30.05
2023-05-15T00:48:21.206Z,30.24
2023-05-15T00:49:21.215Z,30.04
2023-05-15T00:50:21.204Z,29.23
2023-05-15T00:51:21.212Z,27.71
2023-05-15T00:52:21.225Z,30.44
2023-05-15T00:53:21.196Z,28.88
2023-05-15T00:54:21.199Z,29.26
2023-05-15T00:55:21.195Z,30.66
2023-05-15T00:56:21.207Z,31.01
2023-05-15T00:57:21.202Z,33.06
2023-05-15T00:58:21.215Z,31.01
2023-05-15T00:59:21.209Z,31.25
2023-05-15T01:00:21.205Z,33.26
2023-05-15T01:01:21.247Z,32.30
2023-05-15T01:02:21.283Z,30.35
2023-05-15T01:03:21.308Z,31.71
2023-05-15T01:04:21.242Z,32.74
2023-05-15T01:05:21.221Z,32.53
2023-05-15T01:06:31.478Z,31.90
2023-05-15T01:07:21.220Z,32.43
2023-05-15T01:08:21.215Z,33.06
2023-05-15T01:09:21.214Z,34.03
2023-05-15T01:10:21.209Z,34.79
2023-05-15T01:11:21.507Z,35.12
2023-05-15T01:12:21.180Z,32.97
2023-05-15T01:13:21.184Z,33.98
2023-05-15T01:14:21.199Z,32.73
2023-05-15T01:15:21.176Z,32.53
2023-05-15T01:16:21.495Z,32.57
2023-05-15T01:17:21.152Z,34.11
2023-05-15T01:18:21.266Z,34.99
2023-05-15T01:19:21.188Z,33.33
2023-05-15T01:20:21.138Z,33.65
2023-05-15T01:21:21.125Z,33.40
2023-05-15T01:22:21.113Z,32.01
2023-05-15T01:23:21.112Z,30.85
2023-05-15T01:24:21.089Z,31.62
2023-05-15T01:25:21.117Z,31.88
2023-05-15T01:26:21.095Z,32.41
2023-05-15T01:27:21.091Z,31.88
2023-05-15T01:28:21.110Z,31.66
2023-05-15T01:29:21.082Z,31.77
2023-05-15T01:30:21.060Z,32.52
2023-05-15T01:31:21.115Z,31.37
2023-05-15T01:32:21.126Z,30.60
2023-05-15T01:33:21.042Z,29.64
2023-05-15T01:34:21.039Z,30.84
2023-05-15T01:35:21.035Z,30.45
2023-05-15T01:36:21.053Z,31.12
2023-05-15T01:37:21.024Z,30.86
2023-05-15T01:38:21.030Z,30.92
2023-05-15T01:39:21.000Z,31.12
2023-05-15T01:40:21.006Z,31.78
2023-05-15T01:41:21.024Z,31.01
2023-05-15T01:42:21.009Z,28.81
2023-05-15T01:43:20.980Z,28.38
2023-05-15T01:44:20.996Z,26.69
2023-05-15T01:45:20.968Z,27.76
2023-05-15T01:46:21.000Z,29.38
2023-05-15T01:47:20.972Z,28.71
2023-05-15T01:48:20.948Z,26.75
2023-05-15T01:49:20.964Z,29.39
2023-05-15T01:50:20.937Z,29.97
2023-05-15T01:51:20.943Z,31.58
2023-05-15T01:52:20.920Z,26.78
2023-05-15T01:53:20.910Z,26.59
2023-05-15T01:54:20.930Z,28.82
2023-05-15T01:55:20.898Z,26.79
2023-05-15T01:56:20.890Z,28.77
2023-05-15T01:57:20.884Z,27.54
2023-05-15T01:58:20.881Z,26.53
2023-05-15T01:59:20.873Z,28.65
2023-05-15T02:00:20.865Z,27.40
2023-05-15T02:01:20.887Z,28.52
2023-05-15T02:02:20.858Z,31.89
2023-05-15T02:03:21.037Z,31.11
2023-05-15T02:04:20.838Z,29.33
2023-05-15T02:05:20.832Z,30.57
2023-05-15T02:06:20.834Z,30.67
2023-05-15T02:07:20.815Z,30.56
2023-05-15T02:08:20.805Z,32.71
2023-05-15T02:09:20.797Z,30.55
2023-05-15T02:10:20.794Z,29.70
2023-05-15T02:11:20.814Z,29.96
2023-05-15T02:12:20.829Z,30.14
2023-05-15T02:13:20.852Z,29.59
2023-05-15T02:14:20.859Z,30.18
2023-05-15T02:15:20.878Z,28.90
2023-05-15T02:16:20.916Z,28.10
2023-05-15T02:17:20.914Z,27.51
2023-05-15T02:18:20.915Z,25.91
2023-05-15T02:19:20.915Z,29.71
2023-05-15T02:20:20.937Z,30.12
2023-05-15T02:21:20.950Z,28.08
2023-05-15T02:22:20.964Z,28.26
2023-05-15T02:23:20.997Z,27.72
2023-05-15T02:24:21.016Z,26.62
2023-05-15T02:25:21.007Z,26.75
2023-05-15T02:26:21.039Z,28.60
2023-05-15T02:27:21.043Z,28.30
2023-05-15T02:28:21.081Z,28.12
2023-05-15T02:29:21.073Z,25.87
2023-05-15T02:30:21.082Z,26.60
2023-05-15T02:31:22.341Z,26.47
2023-05-15T02:32:21.089Z,30.50
2023-05-15T02:33:21.093Z,28.72
2023-05-15T02:34:21.081Z,29.58
2023-05-15T02:35:21.074Z,32.88
2023-05-15T02:36:21.081Z,29.90
2023-05-15T02:37:21.076Z,29.80
2023-05-15T02:38:21.052Z,28.95
2023-05-15T02:39:21.057Z,27.06
2023-05-15T02:40:21.066Z,28.55
2023-05-15T02:41:21.059Z,28.09
2023-05-15T02:42:21.032Z,25.85
2023-05-15T02:43:21.019Z,26.91
2023-05-15T02:44:21.023Z,26.89
2023-05-15T02:45:21.001Z,28.82
2023-05-15T02:46:21.226Z,30.33
2023-05-15T02:47:21.005Z,28.78
2023-05-15T02:48:20.993Z,27.09
2023-05-15T02:49:20.973Z,26.82
2023-05-15T02:50:20.970Z,27.88
2023-05-15T02:51:21.022Z,27.38
2023-05-15T02:52:20.963Z,25.00
2023-05-15T02:53:20.978Z,25.48
2023-05-15T02:54:20.964Z,27.11
2023-05-15T02:55:20.950Z,28.56
2023-05-15T02:56:20.932Z,27.70
2023-05-15T02:57:20.996Z,27.32
2023-05-15T02:58:20.948Z,29.08
2023-05-15T02:59:20.916Z,27.24
2023-05-15T03:00:20.910Z,26.82
2023-05-15T03:01:20.938Z,25.00
2023-05-15T03:02:20.894Z,27.26
2023-05-15T03:03:20.923Z,25.00
2023-05-15T03:04:20.953Z,25.78
2023-05-15T03:05:20.856Z,26.06
2023-05-15T03:06:20.854Z,28.57
2023-05-15T03:07:20.867Z,29.31
2023-05-15T03:08:20.841Z,26.04
2023-05-15T03:09:20.874Z,25.00
2023-05-15T03:10:20.830Z,27.41
2023-05-15T03:11:21.387Z,30.05
2023-05-15T03:12:20.814Z,27.73
2023-05-15T03:13:20.828Z,28.32
2023-05-15T03:14:20.798Z,29.75
2023-05-15T03:15:20.823Z,31.83
2023-05-15T03:16:20.899Z,31.33
2023-05-15T03:17:20.775Z,32.11
2023-05-15T03:18:20.896Z,29.51
2023-05-15T03:19:20.760Z,29.81
2023-05-15T03:20:20.768Z,29.46
2023-05-15T03:21:20.749Z,27.59
2023-05-15T03:22:20.745Z,28.92
2023-05-15T03:23:20.751Z,27.37
2023-05-15T03:24:20.817Z,26.00
2023-05-15T03:25:20.718Z,26.47
2023-05-15T03:26:20.721Z,26.00
2023-05-15T03:27:20.707Z,26.68
2023-05-15T03:28:20.710Z,27.62
2023-05-15T03:29:20.692Z,27.58
2023-05-15T03:30:20.713Z,26.03
2023-05-15T03:31:20.757Z,26.68
2023-05-15T03:32:20.686Z,25.00
2023-05-15T03:33:20.670Z,25.41
2023-05-15T03:34:20.658Z,27.16
2023-05-15T03:35:20.666Z,29.62
2023-05-15T03:36:20.655Z,25.00
2023-05-15T03:37:20.671Z,26.61
2023-05-15T03:38:20.644Z,27.74
2023-05-15T03:39:20.620Z,29.29
2023-05-15T03:40:20.639Z,28.89
2023-05-15T03:41:20.626Z,27.65
2023-05-15T03:42:20.601Z,28.01
2023-05-15T03:43:20.601Z,30.00
2023-05-15T03:44:20.601Z,28.61
2023-05-15T03:45:20.592Z,27.30
2023-05-15T03:46:20.610Z,27.78
2023-05-15T03:47:20.575Z,30.55
2023-05-15T03:48:20.570Z,30.41
2023-05-15T03:49:20.579Z,29.35
2023-05-15T03:50:20.551Z,29.93
2023-05-15T03:51:20.571Z,30.73
2023-05-15T03:52:20.545Z,30.92
2023-05-15T03:53:20.536Z,31.91
2023-05-15T03:54:20.529Z,29.55
2023-05-15T03:55:20.528Z,30.27
2023-05-15T03:56:20.520Z,29.38
2023-05-15T03:57:20.512Z,31.22
2023-05-15T03:58:20.497Z,27.87
2023-05-15T03:59:20.495Z,30.69
2023-05-15T04:00:20.490Z,31.06
2023-05-15T04:01:20.499Z,31.94
2023-05-15T04:02:20.480Z,28.99
2023-05-15T04:03:20.597Z,29.73
2023-05-15T04:04:20.464Z,28.33
2023-05-15T04:05:20.465Z,28.82
2023-05-15T04:06:20.476Z,28.32
2023-05-15T04:07:20.437Z,28.40
2023-05-15T04:08:20.433Z,29.99
2023-05-15T04:09:20.465Z,29.55
2023-05-15T04:10:20.418Z,29.85
2023-05-15T04:11:20.445Z,27.20
2023-05-15T04:12:20.408Z,28.56
2023-05-15T04:13:20.407Z,26.28
2023-05-15T04:14:20.409Z,28.51
2023-05-15T04:15:20.389Z,28.22
2023-05-15T04:16:20.392Z,26.63
2023-05-15T04:17:20.438Z,26.31
2023-05-15T04:18:20.364Z,25.18
2023-05-15T04:19:20.455Z,29.30
2023-05-15T04:20:20.353Z,27.96
2023-05-15T04:21:20.357Z,27.15
2023-05-15T04:22:20.362Z,27.52
2023-05-15T04:23:20.352Z,28.19
2023-05-15T04:24:20.324Z,28.64
2023-05-15T04:25:20.428Z,33.02
2023-05-15T04:26:20.364Z,32.49
2023-05-15T04:27:20.318Z,32.45
2023-05-15T04:28:20.304Z,32.10
2023-05-15T04:29:20.315Z,32.40
2023-05-15T04:30:20.303Z,31.64
2023-05-15T04:31:20.317Z,34.49
2023-05-15T04:32:20.271Z,33.91
2023-05-15T04:33:20.269Z,31.74
2023-05-15T04:34:20.263Z,30.60
2023-05-15T04:35:20.274Z,30.75
2023-05-15T04:36:20.247Z,29.66
2023-05-15T04:37:20.242Z,31.22
2023-05-15T04:38:20.241Z,32.30
2023-05-15T04:39:20.230Z,32.98
2023-05-15T04:40:20.229Z,30.67
2023-05-15T04:41:20.224Z,32.05
2023-05-15T04:42:20.237Z,31.07
2023-05-15T04:43:20.189Z,30.46
2023-05-15T04:44:20.186Z,33.57
2023-05-15T04:45:20.184Z,33.51
2023-05-15T04:46:20.268Z,33.46
2023-05-15T04:47:20.209Z,31.40
2023-05-15T04:48:20.164Z,30.14
2023-05-15T04:49:20.161Z,31.46
2023-05-15T04:50:20.161Z,33.06
2023-05-15T04:51:20.152Z,33.47
2023-05-15T04:52:20.134Z,32.01
2023-05-15T04:53:20.130Z,35.61
2023-05-15T04:54:20.129Z,34.26
2023-05-15T04:55:20.123Z,32.72
2023-05-15T04:56:20.104Z,33.64
2023-05-15T04:57:20.116Z,34.86
2023-05-15T04:58:20.098Z,34.42
2023-05-15T04:59:20.111Z,35.71
2023-05-15T05:00:20.085Z,32.96
2023-05-15T05:01:20.109Z,34.92
2023-05-15T05:02:20.146Z,35.68
2023-05-15T05:03:20.109Z,35.16
2023-05-15T05:04:20.063Z,34.11
2023-05-15T05:05:20.053Z,32.62
2023-05-15T05:06:20.048Z,34.06
2023-05-15T05:07:20.061Z,32.44
2023-05-15T05:08:20.019Z,33.62
2023-05-15T05:09:20.052Z,30.75
2023-05-15T05:10:20.030Z,29.05
2023-05-15T05:11:20.014Z,29.43
2023-05-15T05:12:19.996Z,30.88
2023-05-15T05:13:20.015Z,25.92
2023-05-15T05:14:20.005Z,25.00
2023-05-15T05:15:19.984Z,28.68
2023-05-15T05:16:20.003Z,26.16
2023-05-15T05:17:19.967Z,25.00
2023-05-15T05:18:19.971Z,26.06
2023-05-15T05:19:20.002Z,25.00
2023-05-15T05:20:19.978Z,25.53
2023-05-15T05:21:19.944Z,25.65
2023-05-15T05:22:19.942Z,26.70
2023-05-15T05:23:19.938Z,26.33
2023-05-15T05:24:19.917Z,25.45
2023-05-15T05:25:19.937Z,26.55
2023-05-15T05:26:19.957Z,26.46
2023-05-15T05:27:20.086Z,25.33
2023-05-15T05:28:20.020Z,26.57
2023-05-15T05:29:19.915Z,26.89
2023-05-15T05:30:19.886Z,31.05
2023-05-15T05:31:19.968Z,66.49
2023-05-15T05:32:20.122Z,93.94
2023-05-15T05:33:19.894Z,91.03
2023-05-15T05:34:19.907Z,109.82
2023-05-15T05:35:20.595Z,126.35
2023-05-15T05:36:19.864Z,129.87
2023-05-15T05:37:20.102Z,152.52
2023-05-15T05:38:19.845Z,150.52
2023-05-15T05:39:19.872Z,161.67
2023-05-15T05:40:19.829Z,159.37
2023-05-15T05:41:19.864Z,179.08
2023-05-15T05:42:19.800Z,185.35
2023-05-15T05:43:19.799Z,188.78
2023-05-15T05:44:19.817Z,177.95
2023-05-15T05:45:19.831Z,174.64
2023-05-15T05:46:19.868Z,175.44
2023-05-15T05:47:19.816Z,177.78
2023-05-15T05:48:19.839Z,177.73
2023-05-15T05:49:19.762Z,175.99
2023-05-15T05:50:19.806Z,179.01
2023-05-15T05:51:19.899Z,175.09
2023-05-15T05:52:19.823Z,171.61
2023-05-15T05:53:19.865Z,163.19
2023-05-15T05:54:19.891Z,154.78
2023-05-15T05:55:19.852Z,151.43
2023-05-15T05:56:19.896Z,142.48
2023-05-15T05:57:19.920Z,145.99
2023-05-15T05:58:25.566Z,145.89
2023-05-15T05:59:20.884Z,146.00
2023-05-15T06:00:19.853Z,143.66
2023-05-15T06:01:19.858Z,140.11
2023-05-15T06:02:19.918Z,137.54
2023-05-15T06:03:19.978Z,139.93
2023-05-15T06:04:19.903Z,140.78
2023-05-15T06:05:19.827Z,143.97
2023-05-15T06:06:19.826Z,144.85
2023-05-15T06:07:19.821Z,146.39
2023-05-15T06:08:19.835Z,146.26
2023-05-15T06:09:19.808Z,147.71
2023-05-15T06:10:19.810Z,150.79
2023-05-15T06:11:19.802Z,151.07
2023-05-15T06:12:21.068Z,155.22
2023-05-15T06:13:19.774Z,158.61
2023-05-15T06:14:21.163Z,160.73
2023-05-15T06:15:19.751Z,162.38
2023-05-15T06:16:19.789Z,161.04
2023-05-15T06:17:19.746Z,159.04
2023-05-15T06:18:19.758Z,162.51
2023-05-15T06:19:19.788Z,162.13
2023-05-15T06:20:19.754Z,164.99
2023-05-15T06:21:19.729Z,166.59
2023-05-15T06:22:19.726Z,170.52
2023-05-15T06:23:20.071Z,174.05
2023-05-15T06:24:19.700Z,178.07
2023-05-15T06:25:19.706Z,172.48
2023-05-15T06:26:19.672Z,176.96
2023-05-15T06:27:19.688Z,174.48
2023-05-15T06:28:19.680Z,174.80
2023-05-15T06:29:19.664Z,173.96
2023-05-15T06:30:19.707Z,177.91
2023-05-15T06:31:19.731Z,180.37
2023-05-15T06:32:19.675Z,188.09
2023-05-15T06:33:19.637Z,203.95
2023-05-15T06:34:19.633Z,217.95
2023-05-15T06:35:19.623Z,221.67
2023-05-15T06:36:19.684Z,222.10
2023-05-15T06:37:20.146Z,222.43
2023-05-15T06:38:19.631Z,213.46
2023-05-15T06:39:19.601Z,226.82
2023-05-15T06:40:19.694Z,233.02
2023-05-15T06:41:19.591Z,232.63
2023-05-15T06:42:19.588Z,242.86
2023-05-15T06:43:19.568Z,249.01
2023-05-15T06:44:19.654Z,249.74
2023-05-15T06:45:19.577Z,243.57
2023-05-15T06:46:19.562Z,238.96
2023-05-15T06:47:19.574Z,237.08
2023-05-15T06:48:19.605Z,229.57
2023-05-15T06:49:19.532Z,216.67
2023-05-15T06:50:19.577Z,212.43
2023-05-15T06:51:19.512Z,214.50
2023-05-15T06:52:19.514Z,209.09
2023-05-15T06:53:19.502Z,205.32
2023-05-15T06:54:19.500Z,199.46
2023-05-15T06:55:19.488Z,192.03
2023-05-15T06:56:19.498Z,155.45
2023-05-15T06:57:19.473Z,173.84
2023-05-15T06:58:19.465Z,175.56
2023-05-15T06:59:19.458Z,168.12
2023-05-15T07:00:19.463Z,182.80
2023-05-15T07:01:19.552Z,182.81
2023-05-15T07:02:19.465Z,186.60
2023-05-15T07:03:19.446Z,191.39
2023-05-15T07:04:19.426Z,190.53
2023-05-15T07:05:19.542Z,197.85
2023-05-15T07:06:19.403Z,202.47
2023-05-15T07:07:19.575Z,207.23
2023-05-15T07:08:19.401Z,210.42
2023-05-15T07:09:19.399Z,199.77
2023-05-15T07:10:19.562Z,206.37
2023-05-15T07:11:19.408Z,215.24
2023-05-15T07:12:19.643Z,215.07
2023-05-15T07:13:19.479Z,217.28
2023-05-15T07:14:19.452Z,219.26
2023-05-15T07:15:19.492Z,213.27
2023-05-15T07:16:19.512Z,214.19
2023-05-15T07:17:19.563Z,210.27
2023-05-15T07:18:19.551Z,210.20
2023-05-15T07:19:19.536Z,206.13
2023-05-15T07:20:19.540Z,205.48
2023-05-15T07:21:19.557Z,204.43
2023-05-15T07:22:19.564Z,208.12
2023-05-15T07:23:19.569Z,206.22
2023-05-15T07:24:19.591Z,205.54
2023-05-15T07:25:19.592Z,206.67
2023-05-15T07:26:28.719Z,207.99
2023-05-15T07:27:20.663Z,208.26
2023-05-15T07:28:19.742Z,208.33
2023-05-15T07:29:19.599Z,208.70
2023-05-15T07:30:19.612Z,209.14
2023-05-15T07:31:19.709Z,224.03
2023-05-15T07:32:19.675Z,256.52
2023-05-15T07:33:19.580Z,268.36
2023-05-15T07:34:19.572Z,258.01
2023-05-15T07:35:19.589Z,243.34
2023-05-15T07:36:19.585Z,243.55
2023-05-15T07:37:19.551Z,231.25
2023-05-15T07:38:19.636Z,230.12
2023-05-15T07:39:19.693Z,223.02
2023-05-15T07:40:19.563Z,216.28
2023-05-15T07:41:19.562Z,214.62
2023-05-15T07:42:19.553Z,212.63
2023-05-15T07:43:19.538Z,215.03
2023-05-15T07:44:19.520Z,215.28
2023-05-15T07:45:19.643Z,214.94
2023-05-15T07:46:19.525Z,218.14
2023-05-15T07:47:19.506Z,222.21
2023-05-15T07:48:19.605Z,224.44
2023-05-15T07:49:19.653Z,223.70
2023-05-15T07:50:19.511Z,224.19
2023-05-15T07:51:19.447Z,219.45
2023-05-15T07:52:19.474Z,220.08
2023-05-15T07:53:19.441Z,225.83
2023-05-15T07:54:19.438Z,228.42
2023-05-15T07:55:19.445Z,230.14
2023-05-15T07:56:19.419Z,235.72
2023-05-15T07:57:19.439Z,240.31
2023-05-15T07:58:19.408Z,240.71
2023-05-15T07:59:19.432Z,238.98
2023-05-15T08:00:19.388Z,239.90
2023-05-15T08:01:19.387Z,237.54
2023-05-15T08:02:19.500Z,236.28
2023-05-15T08:03:19.576Z,238.46
2023-05-15T08:04:19.491Z,237.47
2023-05-15T08:05:19.354Z,235.90
2023-05-15T08:06:19.363Z,235.40
2023-05-15T08:07:19.397Z,234.13
2023-05-15T08:08:19.331Z,233.78
2023-05-15T08:09:19.320Z,228.75
2023-05-15T08:10:19.334Z,227.12
2023-05-15T08:11:19.362Z,225.35
2023-05-15T08:12:19.350Z,217.72
2023-05-15T08:13:19.664Z,205.22
2023-05-15T08:14:19.367Z,197.04
2023-05-15T08:15:19.305Z,190.19
2023-05-15T08:16:19.410Z,184.91
2023-05-15T08:17:19.289Z,179.86
2023-05-15T08:18:19.276Z,178.31
2023-05-15T08:19:19.296Z,172.53
2023-05-15T08:20:19.257Z,171.50
2023-05-15T08:21:19.234Z,168.67
2023-05-15T08:22:19.331Z,170.53
2023-05-15T08:23:19.277Z,175.27
2023-05-15T08:24:19.274Z,208.36
2023-05-15T08:25:19.226Z,209.83
2023-05-15T08:26:19.235Z,193.04
2023-05-15T08:27:19.691Z,202.75
2023-05-15T08:28:20.153Z,188.86
2023-05-15T08:29:19.323Z,174.80
2023-05-15T08:30:19.352Z,164.64
2023-05-15T08:31:19.425Z,156.52
2023-05-15T08:32:19.391Z,150.26
2023-05-15T08:33:19.646Z,138.79
2023-05-15T08:34:19.447Z,136.51
2023-05-15T08:35:19.453Z,131.91
2023-05-15T08:36:19.579Z,127.27
2023-05-15T08:37:19.510Z,121.82
2023-05-15T08:38:19.547Z,119.40
2023-05-15T08:39:19.523Z,105.52
2023-05-15T08:40:25.643Z,99.44
2023-05-15T08:41:28.865Z,99.84
2023-05-15T08:42:20.528Z,100.18
2023-05-15T08:43:19.648Z,103.51
2023-05-15T08:44:19.506Z,113.08
2023-05-15T08:45:19.494Z,134.26
2023-05-15T08:46:19.487Z,151.76
2023-05-15T08:47:19.501Z,152.06
2023-05-15T08:48:19.545Z,144.62
2023-05-15T08:49:19.471Z,147.44
2023-05-15T08:50:19.484Z,145.09
2023-05-15T08:51:19.466Z,171.34
2023-05-15T08:52:19.460Z,163.02
2023-05-15T08:53:19.444Z,178.42
2023-05-15T08:54:19.458Z,205.88
2023-05-15T08:55:19.433Z,213.11
2023-05-15T08:56:19.469Z,160.16
2023-05-15T08:57:19.432Z,134.83
2023-05-15T08:58:19.412Z,129.61
2023-05-15T08:59:19.430Z,114.80
2023-05-15T09:00:19.416Z,119.46
2023-05-15T09:01:19.433Z,125.19
2023-05-15T09:02:19.445Z,141.65
2023-05-15T09:03:19.511Z,150.81
2023-05-15T09:04:19.395Z,163.27
2023-05-15T09:05:19.375Z,164.56
2023-05-15T09:06:19.372Z,139.39
2023-05-15T09:07:19.386Z,112.74
2023-05-15T09:08:19.363Z,85.99
2023-05-15T09:09:19.364Z,91.86
2023-05-15T09:10:19.378Z,50.92
2023-05-15T09:11:19.348Z,33.37
2023-05-15T09:12:19.380Z,58.10
2023-05-15T09:13:19.349Z,59.22
2023-05-15T09:14:19.625Z,61.05
2023-05-15T09:15:19.304Z,56.46
2023-05-15T09:16:19.308Z,38.06
2023-05-15T09:17:19.301Z,34.72
2023-05-15T09:18:19.331Z,35.34
2023-05-15T09:19:19.391Z,24.55
2023-05-15T09:20:19.343Z,27.55
2023-05-15T09:21:19.263Z,44.60
2023-05-15T09:22:19.281Z,45.04
2023-05-15T09:23:19.260Z,34.20
2023-05-15T09:24:19.273Z,29.34
2023-05-15T09:25:19.234Z,28.01
2023-05-15T09:26:19.244Z,33.37
2023-05-15T09:27:19.231Z,25.00
2023-05-15T09:28:19.255Z,27.98
2023-05-15T09:29:19.333Z,40.27
2023-05-15T09:30:19.244Z,45.96
2023-05-15T09:31:19.357Z,49.46
2023-05-15T09:32:19.501Z,111.23
2023-05-15T09:33:19.655Z,130.69
2023-05-15T09:34:19.187Z,134.45
2023-05-15T09:35:19.175Z,133.36
2023-05-15T09:36:19.171Z,147.16
2023-05-15T09:37:19.162Z,165.41
2023-05-15T09:38:19.153Z,177.29
2023-05-15T09:39:19.658Z,188.60
2023-05-15T09:40:19.253Z,191.34
2023-05-15T09:41:19.138Z,192.11
2023-05-15T09:42:19.159Z,188.85
2023-05-15T09:43:19.230Z,191.20
2023-05-15T09:44:21.468Z,186.91
2023-05-15T09:45:19.457Z,179.24
2023-05-15T09:46:19.640Z,177.43
2023-05-15T09:47:19.655Z,173.03
2023-05-15T09:48:19.581Z,168.40
2023-05-15T09:49:19.575Z,167.53
2023-05-15T09:50:19.614Z,168.51
2023-05-15T09:51:19.617Z,167.73
2023-05-15T09:52:19.653Z,168.41
2023-05-15T09:53:21.412Z,170.71
2023-05-15T09:54:19.755Z,174.33
2023-05-15T09:55:19.770Z,179.55
2023-05-15T09:56:19.777Z,185.04
2023-05-15T09:57:19.838Z,191.22
2023-05-15T09:58:19.859Z,191.03
2023-05-15T09:59:19.875Z,193.80
2023-05-15T10:00:19.908Z,193.07
2023-05-15T10:01:19.968Z,193.21
2023-05-15T10:02:19.970Z,194.27
2023-05-15T10:03:20.030Z,198.00
2023-05-15T10:04:20.034Z,191.90
2023-05-15T10:05:25.894Z,189.73
2023-05-15T10:06:21.069Z,189.70
2023-05-15T10:07:20.048Z,186.62
2023-05-15T10:08:20.054Z,188.42
2023-05-15T10:09:20.058Z,185.49
2023-05-15T10:10:20.050Z,179.97
2023-05-15T10:11:20.050Z,190.60
2023-05-15T10:12:20.028Z,200.85
2023-05-15T10:13:20.036Z,198.65
2023-05-15T10:14:20.042Z,179.74
2023-05-15T10:15:20.076Z,173.28
2023-05-15T10:16:20.070Z,166.13
2023-05-15T10:17:20.715Z,163.55
2023-05-15T10:18:20.152Z,166.17
2023-05-15T10:19:20.393Z,178.84
2023-05-15T10:20:20.166Z,188.99
2023-05-15T10:21:20.198Z,197.78
2023-05-15T10:22:20.250Z,210.79
2023-05-15T10:23:20.278Z,225.12
2023-05-15T10:24:20.277Z,243.87
2023-05-15T10:25:20.312Z,241.16
2023-05-15T10:26:20.324Z,238.62
2023-05-15T10:27:21.174Z,237.64
2023-05-15T10:28:20.686Z,245.80
2023-05-15T10:29:20.396Z,250.00
2023-05-15T10:30:20.463Z,250.00
2023-05-15T10:31:21.217Z,249.38
2023-05-15T10:32:20.604Z,250.00
2023-05-15T10:33:20.620Z,250.00
2023-05-15T10:34:20.731Z,248.18
2023-05-15T10:35:20.713Z,249.49
2023-05-15T10:36:20.760Z,246.92
2023-05-15T10:37:20.789Z,245.47
2023-05-15T10:38:20.813Z,246.01
2023-05-15T10:39:20.826Z,246.33
2023-05-15T10:40:20.848Z,245.17
2023-05-15T10:41:20.859Z,245.43
2023-05-15T10:42:20.866Z,244.64
2023-05-15T10:43:21.486Z,241.80
2023-05-15T10:44:20.931Z,235.34
2023-05-15T10:45:21.677Z,232.90
2023-05-15T10:46:20.990Z,231.67
2023-05-15T10:47:21.027Z,232.55
2023-05-15T10:48:21.003Z,233.50
2023-05-15T10:49:21.019Z,233.39
2023-05-15T10:50:21.034Z,228.44
2023-05-15T10:51:21.044Z,225.68
2023-05-15T10:52:21.072Z,226.84
2023-05-15T10:53:21.684Z,228.63
2023-05-15T10:54:21.143Z,232.09
2023-05-15T10:55:21.173Z,236.65
2023-05-15T10:56:21.256Z,243.06
2023-05-15T10:57:21.249Z,244.14
2023-05-15T10:58:21.341Z,246.75
2023-05-15T10:59:21.299Z,250.00
2023-05-15T11:00:21.332Z,250.00
2023-05-15T11:01:21.403Z,249.44
2023-05-15T11:02:21.465Z,249.62
2023-05-15T11:03:21.842Z,249.58
2023-05-15T11:04:21.543Z,250.00
2023-05-15T11:05:21.608Z,249.54
2023-05-15T11:06:21.639Z,249.69
2023-05-15T11:07:21.922Z,248.44
2023-05-15T11:08:21.785Z,248.60
2023-05-15T11:09:21.873Z,248.26
2023-05-15T11:10:21.769Z,248.30
2023-05-15T11:11:21.815Z,250.00
2023-05-15T11:12:21.882Z,250.00
2023-05-15T11:13:22.060Z,249.45
2023-05-15T11:14:21.998Z,249.19
2023-05-15T11:15:22.108Z,245.73
2023-05-15T11:16:22.077Z,244.32
2023-05-15T11:17:22.097Z,249.00
2023-05-15T11:18:22.105Z,249.15
2023-05-15T11:19:22.164Z,250.55
2023-05-15T11:20:22.324Z,250.00
2023-05-15T11:21:22.270Z,250.00
2023-05-15T11:22:22.333Z,249.37
2023-05-15T11:23:22.744Z,246.67
2023-05-15T11:24:22.691Z,243.77
2023-05-15T11:25:22.445Z,235.50
2023-05-15T11:26:22.503Z,230.14
2023-05-15T11:27:22.536Z,223.31
2023-05-15T11:28:22.589Z,218.69
2023-05-15T11:29:22.720Z,213.46
2023-05-15T11:30:22.984Z,210.44
2023-05-15T11:31:22.740Z,206.21
2023-05-15T11:32:22.703Z,204.20
2023-05-15T11:33:22.737Z,201.69
2023-05-15T11:34:22.762Z,200.32
2023-05-15T11:35:22.835Z,197.05
2023-05-15T11:36:22.816Z,195.92
2023-05-15T11:37:22.845Z,192.46
2023-05-15T11:38:22.876Z,191.04
2023-05-15T11:39:22.896Z,189.08
2023-05-15T11:40:23.019Z,187.67
2023-05-15T11:41:22.944Z,185.05
2023-05-15T11:42:22.971Z,183.53
2023-05-15T11:43:23.013Z,181.20
2023-05-15T11:44:23.001Z,175.99
2023-05-15T11:45:23.035Z,174.07
2023-05-15T11:46:23.095Z,173.26
2023-05-15T11:47:23.162Z,172.29
2023-05-15T11:48:23.058Z,170.93
2023-05-15T11:49:23.099Z,168.16
2023-05-15T11:50:23.460Z,166.25
2023-05-15T11:51:23.169Z,163.69
2023-05-15T11:52:23.159Z,160.99
2023-05-15T11:53:23.228Z,159.87
2023-05-15T11:54:23.197Z,159.63
2023-05-15T11:55:23.225Z,158.39
2023-05-15T11:56:23.264Z,155.73
2023-05-15T11:57:23.286Z,153.54
2023-05-15T11:58:23.310Z,153.29
2023-05-15T11:59:23.320Z,150.46
2023-05-15T12:00:23.475Z,149.42
2023-05-15T12:01:23.357Z,149.24
2023-05-15T12:02:23.426Z,147.40
2023-05-15T12:03:23.527Z,143.63
2023-05-15T12:04:23.521Z,142.53
2023-05-15T12:05:23.502Z,140.85
2023-05-15T12:06:23.467Z,139.69
2023-05-15T12:07:23.479Z,139.84
2023-05-15T12:08:23.502Z,137.64
2023-05-15T12:09:23.529Z,136.58
2023-05-15T12:10:23.612Z,138.39
2023-05-15T12:11:23.619Z,138.14
2023-05-15T12:12:23.619Z,138.45
2023-05-15T12:13:23.654Z,137.09
2023-05-15T12:14:23.665Z,133.61
2023-05-15T12:15:23.763Z,131.35
2023-05-15T12:16:23.760Z,130.42
2023-05-15T12:17:23.744Z,126.06
2023-05-15T12:18:23.794Z,124.65
2023-05-15T12:19:23.921Z,120.86
2023-05-15T12:20:24.118Z,118.19
2023-05-15T12:21:23.873Z,114.31
2023-05-15T12:22:23.885Z,110.41
2023-05-15T12:23:23.924Z,106.27
2023-05-15T12:24:23.976Z,106.85
2023-05-15T12:25:24.025Z,111.24
2023-05-15T12:26:24.044Z,108.43
2023-05-15T12:27:24.075Z,102.29
2023-05-15T12:28:24.117Z,99.33
2023-05-15T12:29:24.154Z,92.40
2023-05-15T12:30:24.384Z,86.88
2023-05-15T12:31:24.231Z,86.89
2023-05-15T12:32:24.299Z,84.98
2023-05-15T12:33:24.258Z,87.64
2023-05-15T12:34:24.293Z,85.62
2023-05-15T12:35:24.353Z,81.31
2023-05-15T12:36:24.376Z,75.77
2023-05-15T12:37:24.406Z,76.14
2023-05-15T12:38:24.459Z,72.31
2023-05-15T12:39:24.482Z,70.41
2023-05-15T12:40:24.711Z,67.42